Smiths Falls, Canada
Current Conditions -  °F | °C
As of 2:00 AM on Thursday 23 Oct 2014 (Local Time) from CYOW Reporting Station
Clear Clear  
Wind Chill: 37°   Ceiling: Unl
Heat Index: 43°   Visibility: 15mi
Dew Point: 34°   Wind: 10mph
Humidity: 70%   Direction: 20°NNE
Pressure: 30.19"   Gusts: NA
Location:  44.9°N, 76.02°W
Report Text: CYOW 230600Z 02009KT 15SM SKC 06/01 A3019 RMK SLP225
Loading
Personal Weather Stations






























Interactive Weather Map
Tropical Storm Tracking
New forecast layout! Learn more

10-Day Weather Forecast

Advertisements
Track Severe Weather on mobile